createdAt,value
2022-08-26T00:00:42.325Z,21.300000
2022-08-26T00:05:30.176Z,21.300000
2022-08-26T00:10:30.104Z,21.227273
2022-08-26T00:15:30.121Z,21.150000
2022-08-26T00:20:30.127Z,21.075000
2022-08-26T00:25:30.330Z,21.000000
2022-08-26T00:30:30.625Z,20.920000
2022-08-26T00:35:30.179Z,20.900000
2022-08-26T00:40:31.034Z,20.811111
2022-08-26T00:45:42.379Z,20.738462
2022-08-26T00:50:30.123Z,20.645455
2022-08-26T00:55:42.404Z,20.600000
2022-08-26T01:00:30.245Z,20.600000
2022-08-26T01:05:30.359Z,20.600000
2022-08-26T01:10:30.499Z,20.600000
2022-08-26T01:15:30.341Z,20.618182
2022-08-26T01:20:42.210Z,20.714286
2022-08-26T01:25:30.198Z,20.854545
2022-08-26T01:30:30.226Z,20.933333
2022-08-26T01:35:42.639Z,21.000000
2022-08-26T01:40:30.221Z,21.000000
2022-08-26T01:45:31.051Z,20.970000
2022-08-26T01:50:30.624Z,20.900000
2022-08-26T01:55:33.114Z,20.900000
2022-08-26T02:00:30.455Z,20.850000
2022-08-26T02:05:30.294Z,20.800000
2022-08-26T02:10:42.231Z,20.833333
2022-08-26T02:15:42.474Z,20.912500
2022-08-26T02:20:42.255Z,21.000000
2022-08-26T02:25:30.259Z,20.909091
2022-08-26T02:30:30.439Z,20.820000
2022-08-26T02:35:30.714Z,20.800000
2022-08-26T02:40:30.455Z,20.800000
2022-08-26T02:45:30.428Z,20.800000
2022-08-26T02:50:42.274Z,20.720000
2022-08-26T02:55:30.229Z,20.650000
2022-08-26T03:00:54.750Z,20.600000
2022-08-26T03:05:30.510Z,20.541667
2022-08-26T03:10:30.342Z,20.500000
2022-08-26T03:15:30.589Z,20.500000
2022-08-26T03:20:31.027Z,20.500000
2022-08-26T03:25:30.473Z,20.515385
2022-08-26T03:30:44.618Z,20.600000
2022-08-26T03:35:30.865Z,20.625000
2022-08-26T03:40:42.403Z,20.700000
2022-08-26T03:45:31.050Z,20.790909
2022-08-26T03:50:30.540Z,20.800000
2022-08-26T03:55:30.591Z,20.850000
2022-08-26T04:00:30.443Z,20.900000
2022-08-26T04:05:42.567Z,20.945455
2022-08-26T04:10:30.422Z,21.000000
2022-08-26T04:15:42.468Z,21.018182
2022-08-26T04:20:30.581Z,21.100000
2022-08-26T04:25:30.393Z,21.108333
2022-08-26T04:30:30.420Z,21.200000
2022-08-26T04:35:30.555Z,21.344444
2022-08-26T04:40:30.875Z,21.590909
2022-08-26T04:45:30.493Z,21.860000
2022-08-26T04:50:30.729Z,22.060000
2022-08-26T04:55:55.252Z,22.127273
2022-08-26T05:00:30.493Z,22.271429
2022-08-26T05:05:42.468Z,22.591667
2022-08-26T05:10:30.621Z,22.844444
2022-08-26T05:15:30.567Z,22.900000
2022-08-26T05:20:30.548Z,22.900000
2022-08-26T05:25:30.447Z,22.816667
2022-08-26T05:30:30.430Z,22.820000
2022-08-26T05:35:30.764Z,22.925000
2022-08-26T05:40:30.559Z,23.040000
2022-08-26T05:45:30.546Z,23.150000
2022-08-26T05:50:30.713Z,23.387500
2022-08-26T05:55:30.534Z,23.653846
2022-08-26T06:00:30.585Z,23.890909
2022-08-26T06:05:33.283Z,24.072727
2022-08-26T06:10:32.973Z,24.200000
2022-08-26T06:15:30.737Z,24.390909
2022-08-26T06:20:30.714Z,24.566667
2022-08-26T06:25:31.347Z,24.700000
2022-08-26T06:30:30.752Z,24.730000
2022-08-26T06:35:30.556Z,24.854545
2022-08-26T06:40:31.060Z,25.100000
2022-08-26T06:45:30.692Z,25.281818
2022-08-26T06:50:30.662Z,25.350000
2022-08-26T06:55:30.601Z,25.400000
2022-08-26T07:00:47.136Z,25.463636
2022-08-26T07:05:30.555Z,25.600000
2022-08-26T07:10:30.604Z,25.758333
2022-08-26T07:15:31.464Z,25.884615
2022-08-26T07:20:30.808Z,26.044444
2022-08-26T07:25:30.524Z,26.100000
2022-08-26T07:30:30.578Z,26.200000
2022-08-26T07:35:30.713Z,26.466667
2022-08-26T07:40:30.658Z,26.563636
2022-08-26T07:45:30.916Z,26.430000
2022-08-26T07:50:47.090Z,26.436364
2022-08-26T07:55:30.712Z,26.575000
2022-08-26T08:00:30.869Z,26.600000
2022-08-26T08:05:33.611Z,26.850000
2022-08-26T08:10:30.627Z,27.175000
2022-08-26T08:15:30.794Z,27.230769
2022-08-26T08:20:30.822Z,27.000000
2022-08-26T08:25:30.635Z,26.908333
2022-08-26T08:30:30.914Z,26.912500
2022-08-26T08:35:30.759Z,27.045455
2022-08-26T08:40:31.211Z,27.154545
2022-08-26T08:45:33.341Z,27.250000
2022-08-26T08:50:31.672Z,27.281818
2022-08-26T08:55:30.781Z,27.063636
2022-08-26T09:00:30.903Z,27.050000
2022-08-26T09:05:30.922Z,26.900000
2022-08-26T09:10:31.065Z,26.654545
2022-08-26T09:15:30.823Z,26.700000
2022-08-26T09:20:42.863Z,26.700000
2022-08-26T09:25:30.816Z,26.722222
2022-08-26T09:30:30.794Z,26.933333
2022-08-26T09:35:30.750Z,27.000000
2022-08-26T09:40:42.741Z,27.000000
2022-08-26T09:45:50.233Z,27.000000
2022-08-26T09:50:30.808Z,27.030000
2022-08-26T09:55:31.934Z,27.100000
2022-08-26T10:00:30.663Z,27.100000
2022-08-26T10:05:30.788Z,27.133333
2022-08-26T10:10:30.959Z,27.200000
2022-08-26T10:15:30.943Z,27.218182
2022-08-26T10:20:30.814Z,27.310000
2022-08-26T10:25:30.758Z,27.438462
2022-08-26T10:30:42.886Z,27.575000
2022-08-26T10:35:42.910Z,27.600000
2022-08-26T10:40:43.133Z,27.570000
2022-08-26T10:45:31.911Z,27.572727
2022-08-26T10:50:42.723Z,27.672727
2022-08-26T10:55:30.702Z,27.700000
2022-08-26T11:00:31.476Z,27.820000
2022-08-26T11:05:30.666Z,27.960000
2022-08-26T11:10:30.762Z,27.981818
2022-08-26T11:15:30.732Z,27.907692
2022-08-26T11:21:06.773Z,27.937500
2022-08-26T11:25:31.194Z,27.933333
2022-08-26T11:30:30.892Z,28.010000
2022-08-26T11:35:30.677Z,28.088889
2022-08-26T11:40:31.230Z,27.750000
2022-08-26T11:46:06.937Z,27.500000
2022-08-26T11:50:30.855Z,27.525000
2022-08-26T11:55:31.281Z,27.320000
2022-08-26T12:00:33.359Z,27.120000
2022-08-26T12:05:30.943Z,27.075000
2022-08-26T12:10:31.122Z,27.177778
2022-08-26T12:15:30.747Z,27.392308
2022-08-26T12:20:30.769Z,27.691667
2022-08-26T12:25:36.142Z,27.800000
2022-08-26T12:30:31.128Z,27.654545
2022-08-26T12:35:30.881Z,27.300000
2022-08-26T12:40:30.991Z,26.981818
2022-08-26T12:45:31.130Z,26.800000
2022-08-26T12:50:30.898Z,26.912500
2022-08-26T12:55:30.673Z,27.241667
2022-08-26T13:00:31.057Z,27.511111
2022-08-26T13:05:31.618Z,27.800000
2022-08-26T13:10:54.989Z,28.009091
2022-08-26T13:15:30.911Z,28.100000
2022-08-26T13:20:30.741Z,28.100000
2022-08-26T13:25:30.696Z,28.100000
2022-08-26T13:30:54.732Z,28.033333
2022-08-26T13:35:42.927Z,28.028571
2022-08-26T13:40:42.807Z,28.000000
2022-08-26T13:46:55.134Z,28.000000
2022-08-26T13:50:30.710Z,28.000000
2022-08-26T13:55:30.968Z,28.000000
2022-08-26T14:00:30.840Z,28.000000
2022-08-26T14:05:30.785Z,28.015385
2022-08-26T14:10:30.887Z,28.100000
2022-08-26T14:15:30.762Z,28.000000
2022-08-26T14:20:30.773Z,28.000000
2022-08-26T14:25:31.012Z,27.981818
2022-08-26T14:30:31.019Z,27.900000
2022-08-26T14:35:31.478Z,27.830000
2022-08-26T14:40:31.259Z,27.733333
2022-08-26T14:45:30.762Z,27.700000
2022-08-26T14:50:30.822Z,27.700000
2022-08-26T14:55:42.817Z,27.700000
2022-08-26T15:00:30.796Z,27.700000
2022-08-26T15:05:55.092Z,27.650000
2022-08-26T15:10:30.822Z,27.600000
2022-08-26T15:15:30.714Z,27.550000
2022-08-26T15:20:36.368Z,27.472727
2022-08-26T15:25:30.833Z,27.350000
2022-08-26T15:30:30.797Z,27.250000
2022-08-26T15:35:43.177Z,27.136364
2022-08-26T15:40:31.383Z,26.966667
2022-08-26T15:45:43.117Z,26.625000
2022-08-26T15:50:30.749Z,25.944444
2022-08-26T15:55:30.787Z,25.154545
2022-08-26T16:01:06.886Z,24.681818
2022-08-26T16:05:30.887Z,24.540000
2022-08-26T16:10:30.808Z,24.442857
2022-08-26T16:15:42.864Z,24.333333
2022-08-26T16:20:30.778Z,24.242857
2022-08-26T16:25:30.943Z,24.140000
2022-08-26T16:30:30.990Z,24.088889
2022-08-26T16:35:31.005Z,24.000000
2022-08-26T16:40:32.096Z,23.909091
2022-08-26T16:45:31.121Z,23.890909
2022-08-26T16:50:43.056Z,23.800000
2022-08-26T16:55:30.805Z,23.650000
2022-08-26T17:01:19.682Z,23.533333
2022-08-26T17:05:31.201Z,23.740000
2022-08-26T17:10:30.894Z,24.000000
2022-08-26T17:15:30.947Z,24.130769
2022-08-26T17:20:30.693Z,24.250000
2022-08-26T17:25:36.664Z,24.336364
2022-08-26T17:30:37.579Z,24.316667
2022-08-26T17:35:34.596Z,24.300000
2022-08-26T17:40:36.446Z,24.222222
2022-08-26T17:45:36.234Z,24.200000
2022-08-26T17:50:37.116Z,24.100000
2022-08-26T17:55:49.797Z,24.066667
2022-08-26T18:02:44.482Z,24.000000
2022-08-26T18:06:18.967Z,24.000000
2022-08-26T18:10:36.563Z,24.000000
2022-08-26T18:15:33.987Z,24.000000
2022-08-26T18:20:35.135Z,24.000000
2022-08-26T18:25:35.349Z,24.050000
2022-08-26T18:30:36.732Z,24.100000
2022-08-26T18:35:31.957Z,24.100000
2022-08-26T18:40:37.340Z,24.100000
2022-08-26T18:45:34.424Z,24.020000
2022-08-26T18:50:47.415Z,23.987500
2022-08-26T18:55:32.564Z,23.900000
2022-08-26T19:00:34.700Z,23.860000
2022-08-26T19:05:36.967Z,23.780000
2022-08-26T19:10:34.879Z,23.660000
2022-08-26T19:15:32.709Z,23.541667
2022-08-26T19:20:46.506Z,23.410000
2022-08-26T19:25:30.761Z,23.400000
2022-08-26T19:30:30.857Z,23.408333
2022-08-26T19:35:33.235Z,23.500000
2022-08-26T19:40:30.938Z,23.500000
2022-08-26T19:45:30.726Z,23.488889
2022-08-26T19:50:33.013Z,23.412500
2022-08-26T19:55:31.051Z,23.500000
2022-08-26T20:00:30.950Z,23.500000
2022-08-26T20:05:31.444Z,23.500000
2022-08-26T20:10:30.854Z,23.416667
2022-08-26T20:15:49.250Z,23.250000
2022-08-26T20:20:33.474Z,23.072727
2022-08-26T20:25:43.146Z,23.066667
2022-08-26T20:30:43.370Z,23.220000
2022-08-26T20:35:30.802Z,23.300000
2022-08-26T20:40:31.055Z,23.262500
2022-08-26T20:45:31.718Z,23.133333
2022-08-26T20:50:30.823Z,22.940000
2022-08-26T20:55:31.106Z,22.866667
2022-08-26T21:00:31.488Z,22.800000
2022-08-26T21:06:19.093Z,22.788889
2022-08-26T21:10:30.793Z,22.785714
2022-08-26T21:15:30.708Z,22.808333
2022-08-26T21:20:42.992Z,22.900000
2022-08-26T21:25:30.974Z,22.990909
2022-08-26T21:30:31.584Z,23.000000
2022-08-26T21:35:30.965Z,22.975000
2022-08-26T21:40:31.032Z,22.900000
2022-08-26T21:45:30.812Z,22.900000
2022-08-26T21:50:30.914Z,22.900000
2022-08-26T21:55:30.775Z,22.853846
2022-08-26T22:00:31.154Z,22.800000
2022-08-26T22:05:30.984Z,22.800000
2022-08-26T22:10:30.787Z,22.800000
2022-08-26T22:15:30.911Z,22.800000
2022-08-26T22:20:30.860Z,22.833333
2022-08-26T22:25:30.783Z,22.900000
2022-08-26T22:30:30.823Z,22.836364
2022-08-26T22:35:31.724Z,22.716667
2022-08-26T22:40:31.047Z,22.570000
2022-08-26T22:45:43.093Z,22.500000
2022-08-26T22:50:30.725Z,22.500000
2022-08-26T22:55:30.896Z,22.500000
2022-08-26T23:00:32.373Z,22.500000
2022-08-26T23:05:30.881Z,22.438462
2022-08-26T23:10:30.869Z,22.400000
2022-08-26T23:15:30.855Z,22.400000
2022-08-26T23:20:31.028Z,22.400000
2022-08-26T23:25:30.857Z,22.440000
2022-08-26T23:30:30.809Z,22.518182
2022-08-26T23:35:31.142Z,22.618182
2022-08-26T23:40:42.917Z,22.745455
2022-08-26T23:45:30.776Z,22.875000
2022-08-26T23:50:30.822Z,22.962500
2022-08-26T23:55:30.750Z,23.000000
